createdAt,value
2019-04-26T00:00:43.658Z,100542.66
2019-04-26T00:03:10.341Z,100538.18
2019-04-26T00:05:36.174Z,100544.17
2019-04-26T00:08:02.960Z,100552.88
2019-04-26T00:10:41.328Z,100538.47
2019-04-26T00:13:18.718Z,100532.77
2019-04-26T00:15:52.435Z,100532.31
2019-04-26T00:18:18.851Z,100525.94
2019-04-26T00:20:44.321Z,100536.09
2019-04-26T00:23:10.739Z,100528.94
2019-04-26T00:25:36.615Z,100521.52
2019-04-26T00:28:01.971Z,100523.20
2019-04-26T00:30:27.468Z,100532.45
2019-04-26T00:32:53.118Z,100545.27
2019-04-26T00:35:18.563Z,100560.43
2019-04-26T00:37:46.512Z,100563.16
2019-04-26T00:40:13.314Z,100568.36
2019-04-26T00:42:39.515Z,100560.81
2019-04-26T00:45:05.146Z,100561.39
2019-04-26T00:47:31.051Z,100559.14
2019-04-26T00:49:57.623Z,100563.03
2019-04-26T00:52:24.152Z,100558.87
2019-04-26T00:54:49.800Z,100562.55
2019-04-26T00:57:18.265Z,100569.87
2019-04-26T00:59:44.170Z,100567.65
2019-04-26T01:02:18.912Z,100568.32
2019-04-26T01:04:44.745Z,100570.13
2019-04-26T01:07:10.093Z,100565.03
2019-04-26T01:09:36.236Z,100550.55
2019-04-26T01:12:02.151Z,100554.30
2019-04-26T01:14:28.219Z,100574.59
2019-04-26T01:16:53.699Z,100586.83
2019-04-26T01:19:21.153Z,100594.59
2019-04-26T01:21:53.466Z,100594.11
2019-04-26T01:24:23.243Z,100599.20
2019-04-26T01:26:52.578Z,100617.38
2019-04-26T01:29:21.791Z,100615.50
2019-04-26T01:31:55.741Z,100610.37
2019-04-26T01:34:22.047Z,100595.09
2019-04-26T01:36:50.417Z,100577.59
2019-04-26T01:39:20.863Z,100598.92
2019-04-26T01:42:07.831Z,100616.32
2019-04-26T01:44:57.608Z,100616.09
2019-04-26T01:47:24.129Z,100605.91
2019-04-26T01:49:51.245Z,100612.04
2019-04-26T01:52:17.451Z,100605.63
2019-04-26T01:54:45.723Z,100614.97
2019-04-26T01:57:11.854Z,100629.73
2019-04-26T01:59:42.209Z,100630.84
2019-04-26T02:02:32.976Z,100631.89
2019-04-26T02:05:00.977Z,100625.16
2019-04-26T02:07:42.086Z,100630.73
2019-04-26T02:10:11.256Z,100629.32
2019-04-26T02:12:37.770Z,100636.98
2019-04-26T02:15:03.259Z,100629.73
2019-04-26T02:17:29.336Z,100617.19
2019-04-26T02:19:55.857Z,100595.43
2019-04-26T02:22:34.141Z,100583.52
2019-04-26T02:24:59.971Z,100588.94
2019-04-26T02:27:28.302Z,100607.55
2019-04-26T02:29:54.170Z,100608.62
2019-04-26T02:32:20.115Z,100608.11
2019-04-26T02:34:46.067Z,100603.84
2019-04-26T02:37:15.615Z,100616.37
2019-04-26T02:39:42.463Z,100614.39
2019-04-26T02:42:26.579Z,100636.69
2019-04-26T02:45:20.231Z,100641.56
2019-04-26T02:47:55.070Z,100643.57
2019-04-26T02:50:42.316Z,100638.73
2019-04-26T02:54:00.353Z,100640.11
2019-04-26T02:56:38.252Z,100637.60
2019-04-26T02:59:37.721Z,100644.01
2019-04-26T03:02:07.507Z,100652.14
2019-04-26T03:04:38.057Z,100660.13
2019-04-26T03:07:12.503Z,100658.41
2019-04-26T03:09:43.215Z,100650.25
2019-04-26T03:12:15.321Z,100650.39
2019-04-26T03:14:51.380Z,100637.60
2019-04-26T03:17:28.178Z,100637.31
2019-04-26T03:20:03.342Z,100643.83
2019-04-26T03:22:55.850Z,100653.92
2019-04-26T03:25:45.627Z,100669.59
2019-04-26T03:28:41.632Z,100667.52
2019-04-26T03:31:25.109Z,100666.92
2019-04-26T03:34:50.723Z,100660.81
2019-04-26T03:38:00.601Z,100653.84
2019-04-26T03:40:44.647Z,100656.10
2019-04-26T03:44:04.920Z,100659.62
2019-04-26T03:46:51.558Z,100663.42
2019-04-26T03:49:54.558Z,100664.00
2019-04-26T03:53:01.374Z,100656.50
2019-04-26T03:56:53.050Z,100664.76
2019-04-26T04:00:03.533Z,100674.20
2019-04-26T04:03:19.569Z,100677.13
2019-04-26T04:05:52.848Z,100662.53
2019-04-26T04:08:27.471Z,100655.23
2019-04-26T04:11:02.513Z,100648.88
2019-04-26T04:13:56.747Z,100655.05
2019-04-26T04:16:48.843Z,100654.42
2019-04-26T04:19:57.788Z,100650.23
2019-04-26T04:22:27.940Z,100647.20
2019-04-26T04:24:59.237Z,100637.48
2019-04-26T04:27:35.681Z,100634.91
2019-04-26T04:30:31.792Z,100639.09
2019-04-26T04:33:40.733Z,100644.29
2019-04-26T04:36:22.400Z,100654.16
2019-04-26T04:39:12.480Z,100656.81
2019-04-26T04:42:11.802Z,100675.66
2019-04-26T04:45:20.389Z,100689.91
2019-04-26T04:48:19.949Z,100691.91
2019-04-26T04:50:55.477Z,100695.58
2019-04-26T04:53:50.020Z,100696.42
2019-04-26T04:57:00.658Z,100695.55
2019-04-26T04:59:46.094Z,100689.71
2019-04-26T05:02:43.923Z,100692.67
2019-04-26T05:06:00.962Z,100688.95
2019-04-26T05:08:52.608Z,100679.69
2019-04-26T05:11:35.422Z,100686.84
2019-04-26T05:14:26.046Z,100690.02
2019-04-26T05:17:36.019Z,100700.56
2019-04-26T05:20:35.252Z,100707.25
2019-04-26T05:24:09.290Z,100714.06
2019-04-26T05:27:32.196Z,100724.81
2019-04-26T05:30:26.858Z,100721.63
2019-04-26T05:33:33.308Z,100731.45
2019-04-26T05:36:40.449Z,100728.66
2019-04-26T05:39:24.271Z,100732.39
2019-04-26T05:43:07.979Z,100736.62
2019-04-26T05:46:09.429Z,100735.23
2019-04-26T05:49:33.135Z,100747.41
2019-04-26T05:52:58.408Z,100743.25
2019-04-26T05:56:27.612Z,100730.04
2019-04-26T05:59:12.548Z,100743.27
2019-04-26T06:02:38.044Z,100750.16
2019-04-26T06:05:43.895Z,100748.12
2019-04-26T06:08:59.609Z,100741.47
2019-04-26T06:11:38.405Z,100740.92
2019-04-26T06:14:41.041Z,100755.80
2019-04-26T06:18:10.134Z,100755.50
2019-04-26T06:20:51.177Z,100751.87
2019-04-26T06:23:29.768Z,100774.52
2019-04-26T06:26:52.843Z,100773.68
2019-04-26T06:29:52.608Z,100767.71
2019-04-26T06:32:37.263Z,100773.98
2019-04-26T06:35:21.322Z,100771.77
2019-04-26T06:38:25.664Z,100772.87
2019-04-26T06:42:00.731Z,100779.95
2019-04-26T06:44:32.808Z,100781.97
2019-04-26T06:47:21.773Z,100763.36
2019-04-26T06:50:13.448Z,100752.37
2019-04-26T06:52:56.655Z,100768.77
2019-04-26T06:55:33.638Z,100789.84
2019-04-26T06:58:43.075Z,100801.66
2019-04-26T07:01:42.910Z,100824.63
2019-04-26T07:04:42.620Z,100825.05
2019-04-26T07:08:25.892Z,100819.70
2019-04-26T07:12:23.287Z,100810.25
2019-04-26T07:15:45.590Z,100804.42
2019-04-26T07:18:47.807Z,100819.30
2019-04-26T07:21:34.895Z,100826.13
2019-04-26T07:25:00.013Z,100824.08
2019-04-26T07:28:06.090Z,100839.63
2019-04-26T07:31:04.187Z,100844.52
2019-04-26T07:34:12.726Z,100848.75
2019-04-26T07:37:36.360Z,100834.09
2019-04-26T07:41:05.137Z,100836.45
2019-04-26T07:44:07.885Z,100832.58
2019-04-26T07:47:08.405Z,100845.80
2019-04-26T07:50:30.095Z,100841.44
2019-04-26T07:53:29.816Z,100852.05
2019-04-26T07:56:36.136Z,100861.19
2019-04-26T08:00:16.850Z,100862.98
2019-04-26T08:03:05.478Z,100873.91
2019-04-26T08:06:22.513Z,100889.38
2019-04-26T08:09:00.367Z,100884.45
2019-04-26T08:11:38.042Z,100881.75
2019-04-26T08:14:12.557Z,100878.27
2019-04-26T08:17:04.937Z,100877.11
2019-04-26T08:19:37.256Z,100875.77
2019-04-26T08:22:17.968Z,100861.83
2019-04-26T08:24:37.552Z,100858.64
2019-04-26T08:27:23.605Z,100861.71
2019-04-26T08:29:51.348Z,100866.89
2019-04-26T08:32:28.220Z,100873.52
2019-04-26T08:35:08.145Z,100884.19
2019-04-26T08:37:48.672Z,100892.48
2019-04-26T08:40:23.080Z,100898.50
2019-04-26T08:42:53.403Z,100893.88
2019-04-26T08:45:33.698Z,100895.16
2019-04-26T08:48:15.208Z,100896.42
2019-04-26T08:50:47.018Z,100893.14
2019-04-26T08:53:14.357Z,100892.15
2019-04-26T08:55:44.398Z,100893.12
2019-04-26T08:58:15.798Z,100901.63
2019-04-26T09:01:14.639Z,100905.47
2019-04-26T09:04:07.015Z,100916.77
2019-04-26T09:07:14.663Z,100915.80
2019-04-26T09:09:56.482Z,100921.89
2019-04-26T09:12:23.316Z,100923.48
2019-04-26T09:14:53.700Z,100919.12
2019-04-26T09:17:19.656Z,100925.53
2019-04-26T09:19:45.967Z,100914.84
2019-04-26T09:22:29.277Z,100915.80
2019-04-26T09:25:01.034Z,100917.19
2019-04-26T09:27:35.888Z,100914.63
2019-04-26T09:30:09.111Z,100917.61
2019-04-26T09:32:39.695Z,100918.36
2019-04-26T09:35:05.594Z,100928.69
2019-04-26T09:37:31.513Z,100922.09
2019-04-26T09:40:09.334Z,100928.05
2019-04-26T09:42:32.070Z,100921.25
2019-04-26T09:45:16.782Z,100918.57
2019-04-26T09:47:47.817Z,100925.48
2019-04-26T09:50:35.377Z,100929.53
2019-04-26T09:53:01.028Z,100924.85
2019-04-26T09:55:35.256Z,100917.40
2019-04-26T09:57:57.080Z,100917.17
2019-04-26T10:00:26.230Z,100922.08
2019-04-26T10:02:51.982Z,100923.84
2019-04-26T10:05:21.639Z,100933.13
2019-04-26T10:07:44.922Z,100941.02
2019-04-26T10:10:22.368Z,100933.88
2019-04-26T10:12:56.214Z,100930.58
2019-04-26T10:15:49.775Z,100934.66
2019-04-26T10:18:20.481Z,100946.91
2019-04-26T10:20:44.761Z,100951.83
2019-04-26T10:23:10.223Z,100954.92
2019-04-26T10:25:35.825Z,100960.20
2019-04-26T10:28:03.699Z,100960.28
2019-04-26T10:30:29.203Z,100952.22
2019-04-26T10:32:58.116Z,100956.05
2019-04-26T10:35:23.265Z,100947.59
2019-04-26T10:37:49.302Z,100951.08
2019-04-26T10:40:15.347Z,100954.03
2019-04-26T10:42:41.075Z,100948.64
2019-04-26T10:45:10.445Z,100948.69
2019-04-26T10:47:38.431Z,100954.78
2019-04-26T10:50:04.938Z,100953.47
2019-04-26T10:52:37.315Z,100953.47
2019-04-26T10:55:25.497Z,100959.55
2019-04-26T10:57:53.333Z,100950.48
2019-04-26T11:00:35.091Z,100943.14
2019-04-26T11:03:04.475Z,100938.14
2019-04-26T11:05:27.889Z,100946.09
2019-04-26T11:07:53.585Z,100943.16
2019-04-26T11:10:20.753Z,100943.22
2019-04-26T11:12:46.737Z,100943.76
2019-04-26T11:15:14.609Z,100932.16
2019-04-26T11:17:40.143Z,100928.31
2019-04-26T11:20:10.240Z,100924.78
2019-04-26T11:22:37.702Z,100923.45
2019-04-26T11:25:00.732Z,100928.34
2019-04-26T11:27:26.592Z,100937.90
2019-04-26T11:29:53.840Z,100940.12
2019-04-26T11:32:19.101Z,100938.45
2019-04-26T11:34:44.694Z,100929.56
2019-04-26T11:37:13.439Z,100929.45
2019-04-26T11:39:40.434Z,100926.23
2019-04-26T11:42:07.946Z,100932.50
2019-04-26T11:44:32.399Z,100921.01
2019-04-26T11:46:59.293Z,100913.09
2019-04-26T11:49:25.497Z,100914.13
2019-04-26T11:51:51.357Z,100916.84
2019-04-26T11:54:20.373Z,100916.45
2019-04-26T11:56:43.973Z,100911.28
2019-04-26T11:59:10.031Z,100912.77
2019-04-26T12:01:36.756Z,100930.48
2019-04-26T12:04:27.751Z,100930.64
2019-04-26T12:06:57.701Z,100926.56
2019-04-26T12:09:37.577Z,100932.12
2019-04-26T12:12:04.786Z,100935.09
2019-04-26T12:14:33.574Z,100934.94
2019-04-26T12:16:59.679Z,100933.77
2019-04-26T12:19:24.991Z,100933.88
2019-04-26T12:21:50.604Z,100940.11
2019-04-26T12:24:16.069Z,100939.88
2019-04-26T12:26:43.810Z,100929.70
2019-04-26T12:29:10.559Z,100933.38
2019-04-26T12:31:36.739Z,100930.86
2019-04-26T12:34:02.229Z,100931.94
2019-04-26T12:36:27.689Z,100928.09
2019-04-26T12:38:53.191Z,100929.08
2019-04-26T12:41:25.328Z,100935.97
2019-04-26T12:43:48.042Z,100937.27
2019-04-26T12:46:38.155Z,100937.21
2019-04-26T12:49:04.055Z,100933.03
2019-04-26T12:51:29.707Z,100934.05
2019-04-26T12:53:55.533Z,100931.83
2019-04-26T12:56:20.979Z,100930.81
2019-04-26T12:58:49.920Z,100933.14
2019-04-26T13:01:14.498Z,100932.83
2019-04-26T13:03:39.978Z,100929.83
2019-04-26T13:06:05.874Z,100930.52
2019-04-26T13:08:31.794Z,100936.70
2019-04-26T13:11:16.044Z,100933.34
2019-04-26T13:13:45.425Z,100934.12
2019-04-26T13:16:14.566Z,100936.76
2019-04-26T13:18:41.217Z,100940.01
2019-04-26T13:21:07.393Z,100939.80
2019-04-26T13:23:32.854Z,100937.69
2019-04-26T13:25:59.615Z,100933.28
2019-04-26T13:28:25.501Z,100929.05
2019-04-26T13:30:51.039Z,100935.23
2019-04-26T13:33:16.496Z,100938.36
2019-04-26T13:35:46.653Z,100930.64
2019-04-26T13:38:10.108Z,100933.52
2019-04-26T13:40:35.718Z,100931.02
2019-04-26T13:43:01.147Z,100934.77
2019-04-26T13:45:49.219Z,100939.20
2019-04-26T13:48:39.165Z,100928.84
2019-04-26T13:51:07.699Z,100931.94
2019-04-26T13:53:33.447Z,100935.02
2019-04-26T13:56:02.024Z,100926.90
2019-04-26T13:58:26.424Z,100924.98
2019-04-26T14:00:52.278Z,100929.77
2019-04-26T14:03:17.817Z,100935.52
2019-04-26T14:05:43.311Z,100927.73
2019-04-26T14:08:17.644Z,100927.63
2019-04-26T14:10:45.478Z,100919.48
2019-04-26T14:13:13.425Z,100919.83
2019-04-26T14:15:39.561Z,100917.03
2019-04-26T14:18:06.622Z,100916.73
2019-04-26T14:20:32.224Z,100911.98
2019-04-26T14:23:05.099Z,100919.97
2019-04-26T14:25:37.872Z,100921.56
2019-04-26T14:28:03.465Z,100919.52
2019-04-26T14:30:29.115Z,100918.33
2019-04-26T14:32:57.292Z,100925.42
2019-04-26T14:35:23.400Z,100918.37
2019-04-26T14:37:49.839Z,100916.65
2019-04-26T14:40:17.842Z,100921.28
2019-04-26T14:42:47.207Z,100925.43
2019-04-26T14:45:22.695Z,100929.16
2019-04-26T14:47:47.366Z,100923.06
2019-04-26T14:50:13.761Z,100925.59
2019-04-26T14:52:34.888Z,100925.20
2019-04-26T14:55:00.482Z,100921.09
2019-04-26T14:57:31.417Z,100912.47
2019-04-26T14:59:58.815Z,100923.61
2019-04-26T15:02:47.140Z,100925.28
2019-04-26T15:05:33.370Z,100922.20
2019-04-26T15:07:59.467Z,100918.56
2019-04-26T15:10:43.764Z,100918.14
2019-04-26T15:13:14.883Z,100911.98
2019-04-26T15:15:33.251Z,100908.83
2019-04-26T15:17:59.543Z,100902.66
2019-04-26T15:20:24.455Z,100895.25
2019-04-26T15:22:50.377Z,100902.90
2019-04-26T15:25:16.204Z,100909.05
2019-04-26T15:27:42.115Z,100913.09
2019-04-26T15:30:09.438Z,100900.39
2019-04-26T15:32:35.982Z,100902.46
2019-04-26T15:35:03.216Z,100896.41
2019-04-26T15:37:28.977Z,100899.86
2019-04-26T15:40:12.719Z,100893.98
2019-04-26T15:43:14.115Z,100894.54
2019-04-26T15:45:42.304Z,100902.66
2019-04-26T15:48:29.916Z,100895.93
2019-04-26T15:50:55.708Z,100898.24
2019-04-26T15:53:22.102Z,100889.35
2019-04-26T15:55:48.459Z,100886.33
2019-04-26T15:58:13.942Z,100894.13
2019-04-26T16:00:39.691Z,100893.94
2019-04-26T16:03:07.318Z,100894.18
2019-04-26T16:05:32.767Z,100892.86
2019-04-26T16:08:01.832Z,100897.56
2019-04-26T16:10:25.864Z,100895.89
2019-04-26T16:12:52.348Z,100900.58
2019-04-26T16:15:18.069Z,100889.56
2019-04-26T16:17:43.781Z,100894.45
2019-04-26T16:20:10.008Z,100892.55
2019-04-26T16:22:35.544Z,100895.69
2019-04-26T16:25:04.043Z,100899.34
2019-04-26T16:27:32.360Z,100903.12
2019-04-26T16:30:05.729Z,100926.27
2019-04-26T16:32:58.819Z,100924.25
2019-04-26T16:35:28.035Z,100922.51
2019-04-26T16:37:52.338Z,100920.83
2019-04-26T16:40:17.922Z,100923.77
2019-04-26T16:42:43.611Z,100921.57
2019-04-26T16:45:12.334Z,100927.61
2019-04-26T16:47:45.159Z,100924.19
2019-04-26T16:50:06.393Z,100926.45
2019-04-26T16:52:33.718Z,100924.27
2019-04-26T16:55:02.792Z,100921.59
2019-04-26T16:57:26.725Z,100930.55
2019-04-26T16:59:57.143Z,100929.47
2019-04-26T17:02:25.613Z,100927.41
2019-04-26T17:04:56.606Z,100931.67
2019-04-26T17:07:27.201Z,100925.64
2019-04-26T17:09:58.099Z,100932.84
2019-04-26T17:12:16.913Z,100932.50
2019-04-26T17:14:47.507Z,100929.61
2019-04-26T17:17:10.817Z,100926.24
2019-04-26T17:19:38.084Z,100922.33
2019-04-26T17:22:16.002Z,100927.98
2019-04-26T17:25:05.390Z,100926.50
2019-04-26T17:27:32.879Z,100929.97
2019-04-26T17:29:59.127Z,100940.28
2019-04-26T17:32:25.135Z,100940.62
2019-04-26T17:34:52.274Z,100945.53
2019-04-26T17:37:21.831Z,100941.44
2019-04-26T17:39:47.517Z,100942.72
2019-04-26T17:42:13.405Z,100945.27
2019-04-26T17:44:41.129Z,100937.98
2019-04-26T17:47:08.445Z,100939.09
2019-04-26T17:49:36.655Z,100944.20
2019-04-26T17:52:02.091Z,100936.41
2019-04-26T17:54:44.169Z,100941.88
2019-04-26T17:56:55.480Z,100945.53
2019-04-26T17:59:33.646Z,100944.61
2019-04-26T18:01:59.638Z,100939.59
2019-04-26T18:04:23.914Z,100949.08
2019-04-26T18:06:47.391Z,100950.70
2019-04-26T18:09:37.640Z,100950.36
2019-04-26T18:11:41.149Z,100947.03
2019-04-26T18:14:20.594Z,100958.73
2019-04-26T18:16:38.818Z,100962.20
2019-04-26T18:19:15.600Z,100950.62
2019-04-26T18:21:49.585Z,100955.85
2019-04-26T18:24:14.206Z,100954.46
2019-04-26T18:26:40.000Z,100957.30
2019-04-26T18:29:06.447Z,100958.52
2019-04-26T18:31:33.642Z,100949.17
2019-04-26T18:34:01.819Z,100951.22
2019-04-26T18:36:31.705Z,100958.46
2019-04-26T18:38:55.175Z,100960.91
2019-04-26T18:41:28.744Z,100955.95
2019-04-26T18:43:54.953Z,100956.50
2019-04-26T18:46:24.322Z,100959.59
2019-04-26T18:48:53.452Z,100961.02
2019-04-26T18:51:19.577Z,100958.30
2019-04-26T18:54:19.143Z,100960.94
2019-04-26T18:56:50.033Z,100958.63
2019-04-26T18:59:15.968Z,100957.09
2019-04-26T19:01:42.152Z,100966.38
2019-04-26T19:04:12.719Z,100970.70
2019-04-26T19:06:37.954Z,100974.23
2019-04-26T19:09:05.841Z,100979.27
2019-04-26T19:11:32.416Z,100983.98
2019-04-26T19:14:22.653Z,100984.50
2019-04-26T19:17:19.912Z,100982.79
2019-04-26T19:20:14.014Z,100990.49
2019-04-26T19:22:41.563Z,100992.08
2019-04-26T19:25:19.007Z,100992.50
2019-04-26T19:27:47.383Z,100996.28
2019-04-26T19:30:08.982Z,100997.02
2019-04-26T19:32:35.233Z,100997.33
2019-04-26T19:35:00.793Z,100997.24
2019-04-26T19:37:26.612Z,100998.76
2019-04-26T19:39:52.818Z,101003.25
2019-04-26T19:42:18.850Z,101001.55
2019-04-26T19:44:49.401Z,101002.34
2019-04-26T19:47:31.122Z,101010.87
2019-04-26T19:50:09.353Z,101011.86
2019-04-26T19:52:39.610Z,101019.20
2019-04-26T19:55:14.363Z,101007.09
2019-04-26T19:57:56.651Z,101014.20
2019-04-26T20:00:24.581Z,101013.03
2019-04-26T20:02:52.200Z,101009.05
2019-04-26T20:05:17.854Z,101008.77
2019-04-26T20:07:44.683Z,101015.92
2019-04-26T20:10:12.677Z,101015.23
2019-04-26T20:12:44.531Z,101016.11
2019-04-26T20:15:25.941Z,101013.84
2019-04-26T20:17:45.113Z,101012.66
2019-04-26T20:20:18.989Z,101011.31
2019-04-26T20:22:39.293Z,101009.34
2019-04-26T20:25:08.346Z,101002.98
2019-04-26T20:27:34.531Z,101004.78
2019-04-26T20:30:02.348Z,101002.33
2019-04-26T20:32:33.326Z,100998.05
2019-04-26T20:35:31.894Z,100994.27
2019-04-26T20:38:01.124Z,100992.29
2019-04-26T20:40:26.501Z,100991.24
2019-04-26T20:42:57.126Z,100994.11
2019-04-26T20:45:21.729Z,100990.49
2019-04-26T20:47:52.075Z,100990.66
2019-04-26T20:50:15.734Z,100992.63
2019-04-26T20:52:45.144Z,100999.08
2019-04-26T20:55:11.911Z,100996.52
2019-04-26T20:57:37.592Z,100999.50
2019-04-26T21:00:05.532Z,100997.02
2019-04-26T21:02:35.297Z,100994.59
2019-04-26T21:05:02.047Z,100999.51
2019-04-26T21:07:28.140Z,101000.68
2019-04-26T21:09:53.889Z,100996.42
2019-04-26T21:12:19.546Z,100996.73
2019-04-26T21:14:45.691Z,100986.30
2019-04-26T21:17:11.523Z,100991.95
2019-04-26T21:19:38.676Z,100999.06
2019-04-26T21:22:04.073Z,101011.11
2019-04-26T21:24:32.224Z,101015.28
2019-04-26T21:27:10.649Z,101010.92
2019-04-26T21:30:03.149Z,101014.31
2019-04-26T21:32:45.925Z,101016.37
2019-04-26T21:35:13.887Z,101018.70
2019-04-26T21:37:59.831Z,101012.17
2019-04-26T21:40:29.382Z,101009.95
2019-04-26T21:42:59.263Z,101004.89
2019-04-26T21:45:28.211Z,101004.91
2019-04-26T21:47:49.529Z,101002.50
2019-04-26T21:50:14.991Z,101000.22
2019-04-26T21:52:40.336Z,101004.46
2019-04-26T21:55:06.702Z,100994.24
2019-04-26T21:57:32.589Z,100994.27
2019-04-26T21:59:58.201Z,100999.87
2019-04-26T22:02:25.508Z,100995.09
2019-04-26T22:04:53.135Z,100998.81
2019-04-26T22:07:19.138Z,100990.32
2019-04-26T22:10:00.169Z,100996.91
2019-04-26T22:12:27.289Z,100991.78
2019-04-26T22:15:03.377Z,100993.80
2019-04-26T22:17:40.695Z,100988.00
2019-04-26T22:20:23.385Z,100987.32
2019-04-26T22:23:11.593Z,100985.09
2019-04-26T22:25:40.508Z,100982.65
2019-04-26T22:28:06.448Z,100987.65
2019-04-26T22:30:33.130Z,100989.27
2019-04-26T22:32:59.282Z,100987.04
2019-04-26T22:35:25.117Z,100987.02
2019-04-26T22:37:50.981Z,100982.22
2019-04-26T22:40:19.594Z,100980.09
2019-04-26T22:42:46.452Z,100980.73
2019-04-26T22:45:28.364Z,100977.83
2019-04-26T22:48:03.457Z,100979.14
2019-04-26T22:50:29.129Z,100981.78
2019-04-26T22:52:54.935Z,100978.27
2019-04-26T22:55:24.122Z,100973.77
2019-04-26T22:57:49.685Z,100983.04
2019-04-26T23:00:15.398Z,100979.72
2019-04-26T23:02:41.112Z,100975.56
2019-04-26T23:05:07.091Z,100978.69
2019-04-26T23:07:33.235Z,100977.30
2019-04-26T23:10:06.428Z,100984.99
2019-04-26T23:12:54.071Z,100978.11
2019-04-26T23:15:43.247Z,100981.27
2019-04-26T23:18:24.143Z,100983.75
2019-04-26T23:20:53.572Z,100978.44
2019-04-26T23:23:19.051Z,100983.87
2019-04-26T23:25:45.052Z,100979.91
2019-04-26T23:28:10.988Z,100982.80
2019-04-26T23:30:36.720Z,100981.52
2019-04-26T23:33:02.646Z,100980.02
2019-04-26T23:35:28.414Z,100993.34
2019-04-26T23:37:56.572Z,100985.91
2019-04-26T23:40:25.661Z,100983.97
2019-04-26T23:42:51.631Z,100977.17
2019-04-26T23:45:17.269Z,100977.05
2019-04-26T23:47:43.824Z,100971.94
2019-04-26T23:50:09.458Z,100968.11
2019-04-26T23:52:34.993Z,100965.09
2019-04-26T23:55:00.388Z,100966.06
2019-04-26T23:57:27.491Z,100964.71
2019-04-26T23:59:56.402Z,100970.76
